Chpt de Ligue Moyenne Distance AZ et PR Gréolières - E

Date : 16/05/2010

Place Nom Licence Catégorie Club Temps Points
1 SOGNO Martin 14950 H14 1307PZ 0:18:12 3905
2 DELENNE William 11904 H14 1307PZ 0:18:48 3780
3 DELENNE Adrien 10384 H14 1307PZ 0:19:39 3617
4 LAVILLE Julien 16547 H14 1307PZ 0:22:35 3147
5 PICAZO Marie 16555 D14 8405PZ 0:22:46 3121
6 MAGNON Robin 18257 H14 1307PZ 0:24:40 2881
7 ELIAS Pauline 16137 D14 1307PZ 0:26:20 2699
8 DELENNE Camilla 13800 D14 1307PZ 0:27:10 2616
9 BEYLS Nicolas 18100 H14 0615PZ 0:29:38 2398
10 PIBAROT Apolline 13877 D14 8302PZ 0:41:50 1699
11 BRUNET Marie-Line 16364 D35 0615PZ 0:42:56 1655
12 DOOM Mary-Laurie 6056 D60 8311PZ 0:43:11 1646
13 MOREL Louise 20487 D14 1303PZ 0:49:27 1437
14 PROST Gisele 2182 D60 9307IF 0:58:57 1206
15 SWINDELL Fraser 20506 H16 0621PZ 1:04:47 1097
16 DA MAIA Mailys 20486 D14 1303PZ 1:10:30 1008
17 GEHIN Monique 1750 D65 0404PZ 1:11:33 993
18 CAU Oriane 22259 D14 1303PZ 1:12:55 975
19 TÖRMÄ Kamilla 22036 D14 0621PZ 1:26:49 819
20 BERRIEN Coline 18765 D14 1303PZ 1:50:11 645
CABANIS Nadine 22866 D55 8404PZ pm 0
BEYLS Gwenaelle 20470 D45 0615PZ pm 0
CHAVERNAC Chantal 1417 D70 8315PZ pm 0